Time;durP1;ratioP1;P1;durP2;ratioP2;P2;SDS_P1;SDS_P2;PMS_P1;PMS_P2;Temp;Humidity;BMP_temperature;BMP_pressure;BME280_temperature;BME280_humidity;BME280_pressure;Samples;Min_cycle;Max_cycle;Signal;HPM_P1;HPM_P2
2023/04/06 00:01:40;;;;;;;126.80;43.60;;;;;;;-3.58;66.12;98907.52;104978;1261;97949;-67
2023/04/06 00:04:07;;;;;;;115.40;42.60;;;;;;;-3.61;66.35;98907.66;104951;1268;97893;-67
2023/04/06 00:06:34;;;;;;;115.70;43.50;;;;;;;-3.63;66.55;98906.02;104959;1267;97877;-67
2023/04/06 00:09:02;;;;;;;117.20;43.20;;;;;;;-3.68;66.79;98902.59;104915;1267;98499;-67
2023/04/06 00:11:29;;;;;;;115.80;42.90;;;;;;;-3.73;67.09;98902.37;104847;1254;97902;-67
2023/04/06 00:14:07;;;;;;;113.40;44.10;;;;;;;-3.77;67.08;98904.48;104817;1261;98503;-67
2023/04/06 00:16:43;;;;;;;120.50;44.60;;;;;;;-3.79;67.22;98905.69;104595;1264;112223;-66
2023/04/06 00:19:18;;;;;;;125.30;45.90;;;;;;;-3.81;67.29;98902.73;104635;1273;99243;-66
2023/04/06 00:21:48;;;;;;;135.30;45.60;;;;;;;-3.84;67.61;98901.54;104904;1261;108531;-66
2023/04/06 00:24:18;;;;;;;131.20;45.90;;;;;;;-3.86;67.64;98901.05;104873;1267;98004;-66
2023/04/06 00:26:46;;;;;;;121.60;43.10;;;;;;;-3.86;67.69;98906.17;104831;1267;98033;-66
2023/04/06 00:29:13;;;;;;;118.70;44.50;;;;;;;-3.87;67.75;98901.96;105078;1270;97922;-67
2023/04/06 00:31:40;;;;;;;109.60;43.10;;;;;;;-3.88;67.92;98903.14;104863;1260;97900;-69
2023/04/06 00:34:07;;;;;;;121.60;43.90;;;;;;;-3.89;68.07;98900.88;105082;1259;98004;-67
2023/04/06 00:36:34;;;;;;;127.00;44.00;;;;;;;-3.89;67.94;98898.48;104940;1264;97893;-67
2023/04/06 00:39:01;;;;;;;128.10;46.60;;;;;;;-3.89;68.00;98899.60;105032;1260;97928;-67
2023/04/06 00:41:28;;;;;;;127.70;47.90;;;;;;;-3.87;68.00;98900.00;105102;1269;99219;-66
2023/04/06 00:43:55;;;;;;;133.60;46.90;;;;;;;-3.84;68.10;98900.92;105072;1260;108430;-66
2023/04/06 00:46:22;;;;;;;124.50;45.70;;;;;;;-3.79;68.12;98897.02;104983;1271;97908;-66
2023/04/06 00:48:49;;;;;;;113.40;43.90;;;;;;;-3.73;68.17;98895.35;105028;1267;98787;-65
2023/04/06 00:51:16;;;;;;;113.70;45.20;;;;;;;-3.68;68.30;98892.36;105098;1274;98483;-67
2023/04/06 00:53:43;;;;;;;99.10;39.60;;;;;;;-3.62;68.07;98891.80;105169;1260;98008;-67
2023/04/06 00:56:10;;;;;;;101.80;38.00;;;;;;;-3.59;68.17;98893.02;105045;1268;98676;-66
2023/04/06 00:58:38;;;;;;;112.60;40.60;;;;;;;-3.56;68.06;98893.36;104953;1260;97928;-66
2023/04/06 01:01:05;;;;;;;107.30;41.10;;;;;;;-3.52;68.11;98895.48;104898;1277;99173;-66
2023/04/06 01:03:32;;;;;;;110.60;39.90;;;;;;;-3.51;67.97;98895.58;105031;1267;97896;-67
2023/04/06 01:05:59;;;;;;;117.40;41.10;;;;;;;-3.54;68.19;98896.94;104955;1260;98572;-66
2023/04/06 01:08:27;;;;;;;103.70;38.20;;;;;;;-3.58;68.32;98897.05;104882;1267;99266;-66
2023/04/06 01:10:54;;;;;;;110.60;39.40;;;;;;;-3.61;68.33;98896.04;104943;1260;98585;-66
2023/04/06 01:13:21;;;;;;;113.20;41.00;;;;;;;-3.63;68.35;98894.65;104943;1259;98004;-67
2023/04/06 01:15:49;;;;;;;111.20;39.10;;;;;;;-3.67;68.53;98894.33;104900;1267;98821;-66
2023/04/06 01:18:16;;;;;;;109.60;39.70;;;;;;;-3.71;68.50;98894.05;104832;1263;109660;-66
2023/04/06 01:20:43;;;;;;;105.80;37.40;;;;;;;-3.76;68.70;98892.03;105018;1260;97889;-66
2023/04/06 01:23:10;;;;;;;110.50;39.90;;;;;;;-3.80;68.66;98892.92;105052;1255;97871;-67
2023/04/06 01:25:38;;;;;;;104.10;38.40;;;;;;;-3.85;68.81;98895.20;104902;1260;97947;-67
2023/04/06 01:28:05;;;;;;;113.90;40.10;;;;;;;-3.88;68.87;98895.14;105008;1260;97902;-66
2023/04/06 01:30:33;;;;;;;111.40;39.40;;;;;;;-3.92;69.19;98893.88;104948;1260;97980;-67
2023/04/06 01:33:00;;;;;;;120.90;41.90;;;;;;;-3.95;69.26;98892.33;104927;1267;97931;-67
2023/04/06 01:35:28;;;;;;;109.70;39.80;;;;;;;-4.00;69.27;98890.95;105043;1258;97899;-66
2023/04/06 01:37:55;;;;;;;114.30;42.30;;;;;;;-4.04;69.55;98891.17;105023;1254;97880;-66
2023/04/06 01:40:22;;;;;;;113.10;41.20;;;;;;;-4.06;69.74;98891.64;105050;1260;98069;-66
2023/04/06 01:42:50;;;;;;;104.20;40.90;;;;;;;-4.09;69.91;98892.79;104972;1267;98008;-67
2023/04/06 01:45:16;;;;;;;100.70;39.90;;;;;;;-4.13;69.98;98889.77;104946;1268;97965;-67
2023/04/06 01:47:44;;;;;;;94.40;37.50;;;;;;;-4.18;69.96;98891.27;104856;1266;98017;-66
2023/04/06 01:50:12;;;;;;;98.70;36.20;;;;;;;-4.21;70.12;98887.59;105030;1267;99197;-67
2023/04/06 01:52:39;;;;;;;100.20;38.50;;;;;;;-4.22;70.31;98881.59;104926;1261;99196;-71
2023/04/06 01:55:07;;;;;;;100.60;37.00;;;;;;;-4.27;70.31;98881.97;105031;1267;99202;-66
2023/04/06 01:57:34;;;;;;;108.70;38.50;;;;;;;-4.30;70.45;98885.66;105083;1254;97983;-67
2023/04/06 02:00:03;;;;;;;104.00;40.90;;;;;;;-4.32;70.25;98886.27;105075;1260;98434;-66
2023/04/06 02:02:37;;;;;;;109.70;41.00;;;;;;;-4.33;70.50;98884.31;105048;1254;112305;-66
2023/04/06 02:05:04;;;;;;;108.70;39.10;;;;;;;-4.36;70.76;98885.11;104962;1261;98223;-66
2023/04/06 02:07:32;;;;;;;110.70;42.50;;;;;;;-4.38;71.00;98882.88;105033;1264;108694;-66
2023/04/06 02:09:59;;;;;;;113.30;44.00;;;;;;;-4.39;71.11;98885.80;104903;1267;97879;-66
2023/04/06 02:12:27;;;;;;;120.10;47.20;;;;;;;-4.35;70.91;98886.08;104892;1267;99107;-67
2023/04/06 02:14:54;;;;;;;118.00;46.00;;;;;;;-4.27;70.85;98885.23;105037;1259;97906;-66
2023/04/06 02:17:22;;;;;;;110.60;44.30;;;;;;;-4.21;70.72;98877.36;104844;1255;98414;-66
2023/04/06 02:19:49;;;;;;;109.90;44.70;;;;;;;-4.19;70.65;98877.83;105028;1260;99298;-66
2023/04/06 02:22:17;;;;;;;113.30;42.10;;;;;;;-4.15;70.61;98875.89;105033;1254;98277;-66
2023/04/06 02:24:44;;;;;;;100.80;38.00;;;;;;;-4.06;70.48;98874.05;104959;1260;97982;-67
2023/04/06 02:27:11;;;;;;;100.60;37.70;;;;;;;-4.03;70.41;98875.15;105036;1254;99234;-66
2023/04/06 02:29:38;;;;;;;108.40;39.90;;;;;;;-3.99;70.42;98877.14;105097;1260;97892;-66
2023/04/06 02:32:06;;;;;;;119.40;41.60;;;;;;;-3.93;70.41;98877.61;105019;1260;98468;-67
2023/04/06 02:34:33;;;;;;;115.50;42.30;;;;;;;-3.95;70.26;98876.59;105028;1259;98009;-66
2023/04/06 02:37:01;;;;;;;101.20;41.40;;;;;;;-3.97;70.38;98877.59;105039;1260;97979;-66
2023/04/06 02:39:28;;;;;;;105.60;41.70;;;;;;;-3.98;70.51;98879.48;104977;1267;98174;-66
2023/04/06 02:41:56;;;;;;;111.10;40.20;;;;;;;-3.99;70.47;98877.39;105004;1261;98448;-66
2023/04/06 02:44:24;;;;;;;108.70;41.00;;;;;;;-4.02;70.60;98879.17;105015;1269;108203;-66
2023/04/06 02:46:51;;;;;;;104.10;38.80;;;;;;;-4.06;70.87;98880.85;104972;1260;97940;-65
2023/04/06 02:49:18;;;;;;;100.90;40.10;;;;;;;-4.11;70.87;98879.71;105013;1267;98331;-65
2023/04/06 02:51:46;;;;;;;105.00;37.40;;;;;;;-4.17;71.13;98885.36;104982;1264;97863;-66
2023/04/06 02:54:13;;;;;;;104.10;39.60;;;;;;;-4.23;71.50;98886.07;105076;1261;99190;-65
2023/04/06 02:56:40;;;;;;;105.20;38.00;;;;;;;-4.29;71.82;98886.89;104919;1260;98502;-66
2023/04/06 02:59:07;;;;;;;102.50;38.70;;;;;;;-4.36;72.08;98882.14;104992;1260;97976;-66
2023/04/06 03:01:36;;;;;;;107.90;39.00;;;;;;;-4.42;72.20;98881.48;105012;1260;97908;-66
2023/04/06 03:04:03;;;;;;;105.20;39.50;;;;;;;-4.47;72.23;98884.34;104929;1258;113351;-67
2023/04/06 03:06:31;;;;;;;105.10;39.60;;;;;;;-4.53;72.51;98882.99;104834;1260;97981;-67
2023/04/06 03:08:58;;;;;;;106.10;41.10;;;;;;;-4.58;72.53;98882.64;104875;1267;108161;-66
2023/04/06 03:11:26;;;;;;;103.80;38.70;;;;;;;-4.63;72.82;98883.73;105009;1254;97896;-67
2023/04/06 03:13:54;;;;;;;102.90;42.10;;;;;;;-4.68;73.02;98884.05;104787;1254;99098;-69
2023/04/06 03:16:21;;;;;;;109.60;42.10;;;;;;;-4.70;73.22;98885.52;105018;1260;112037;-67
2023/04/06 03:18:49;;;;;;;98.80;41.90;;;;;;;-4.74;73.05;98883.89;104936;1269;99065;-67
2023/04/06 03:21:16;;;;;;;125.60;43.40;;;;;;;-4.78;73.26;98889.36;104977;1259;97934;-66
2023/04/06 03:23:43;;;;;;;120.60;44.70;;;;;;;-4.80;73.29;98886.50;105000;1254;99227;-67
2023/04/06 03:26:10;;;;;;;129.80;46.50;;;;;;;-4.78;73.14;98889.93;104985;1254;97900;-68
2023/04/06 03:28:37;;;;;;;126.70;48.80;;;;;;;-4.73;73.21;98891.21;104876;1255;98247;-67
2023/04/06 03:31:04;;;;;;;133.70;51.20;;;;;;;-4.68;73.28;98889.98;105009;1260;98037;-67
2023/04/06 03:33:32;;;;;;;129.10;50.30;;;;;;;-4.62;73.21;98891.33;104955;1267;97971;-66
2023/04/06 03:35:59;;;;;;;123.20;45.70;;;;;;;-4.57;73.45;98893.50;105136;1261;97896;-66
2023/04/06 03:38:26;;;;;;;132.20;48.50;;;;;;;-4.49;73.58;98898.16;105050;1254;98412;-66
2023/04/06 03:40:53;;;;;;;117.70;46.90;;;;;;;-4.43;73.33;98893.54;105018;1267;97987;-66
2023/04/06 03:43:20;;;;;;;130.70;46.80;;;;;;;-4.37;73.22;98891.31;105014;1267;98508;-66
2023/04/06 03:45:47;;;;;;;119.80;44.80;;;;;;;-4.35;73.08;98894.15;104975;1260;97995;-66
2023/04/06 03:48:15;;;;;;;111.20;44.90;;;;;;;-4.34;73.17;98898.10;104854;1264;98002;-66
2023/04/06 03:50:42;;;;;;;110.60;43.90;;;;;;;-4.33;73.06;98898.67;105002;1261;97983;-66
2023/04/06 03:53:10;;;;;;;115.40;44.60;;;;;;;-4.35;73.07;98898.60;105050;1261;97880;-67
2023/04/06 03:55:37;;;;;;;112.10;42.10;;;;;;;-4.40;73.07;98898.23;104953;1260;98106;-66
2023/04/06 03:58:04;;;;;;;117.10;42.60;;;;;;;-4.44;73.06;98902.48;105005;1259;99180;-66
2023/04/06 04:00:32;;;;;;;104.10;42.90;;;;;;;-4.47;73.27;98904.51;105017;1260;99201;-66
2023/04/06 04:03:01;;;;;;;118.90;43.10;;;;;;;-4.49;73.33;98906.45;104974;1267;112461;-67
2023/04/06 04:05:29;;;;;;;115.30;42.10;;;;;;;-4.51;73.26;98907.06;104905;1262;99666;-67
2023/04/06 04:07:56;;;;;;;107.00;43.40;;;;;;;-4.55;73.10;98909.02;104988;1260;97915;-66
2023/04/06 04:10:23;;;;;;;105.10;41.40;;;;;;;-4.59;73.51;98907.58;105075;1272;97988;-66
2023/04/06 04:12:50;;;;;;;112.40;43.30;;;;;;;-4.60;73.41;98905.19;105017;1260;97907;-66
2023/04/06 04:15:19;;;;;;;114.20;42.90;;;;;;;-4.64;73.40;98903.17;104911;1276;112261;-66
2023/04/06 04:17:48;;;;;;;101.00;41.30;;;;;;;-4.71;73.62;98907.66;105054;1254;97977;-66
2023/04/06 04:20:16;;;;;;;108.90;42.30;;;;;;;-4.77;74.07;98908.70;105014;1259;108618;-66
2023/04/06 04:22:43;;;;;;;105.60;41.60;;;;;;;-4.81;74.24;98911.17;104663;1264;97906;-67
2023/04/06 04:25:10;;;;;;;116.70;43.20;;;;;;;-4.83;74.02;98909.08;104886;1260;97984;-67
2023/04/06 04:27:39;;;;;;;112.30;39.60;;;;;;;-4.85;74.10;98910.77;104823;1271;111161;-67
2023/04/06 04:30:07;;;;;;;121.60;43.80;;;;;;;-4.84;74.17;98909.50;104946;1260;97900;-67
2023/04/06 04:32:35;;;;;;;116.20;44.30;;;;;;;-4.84;74.21;98909.99;104945;1254;108478;-66
2023/04/06 04:35:02;;;;;;;109.80;41.40;;;;;;;-4.85;74.27;98912.04;105020;1261;98795;-68
2023/04/06 04:37:29;;;;;;;103.00;42.70;;;;;;;-4.89;74.57;98909.20;105065;1261;98055;-66
2023/04/06 04:39:56;;;;;;;114.10;44.80;;;;;;;-4.91;74.73;98911.02;105215;1267;97890;-67
2023/04/06 04:42:24;;;;;;;139.10;50.20;;;;;;;-4.90;74.61;98910.07;105039;1254;97943;-67
2023/04/06 04:44:51;;;;;;;132.00;51.60;;;;;;;-4.86;74.80;98907.44;105051;1258;98791;-66
2023/04/06 04:47:19;;;;;;;141.00;56.70;;;;;;;-4.81;74.71;98909.36;105018;1254;98498;-68
2023/04/06 04:49:46;;;;;;;152.70;59.80;;;;;;;-4.74;75.09;98908.66;104993;1254;97908;-66
2023/04/06 04:52:14;;;;;;;144.50;56.60;;;;;;;-4.66;74.92;98907.46;104959;1254;99183;-67
2023/04/06 04:54:41;;;;;;;134.70;55.10;;;;;;;-4.56;75.20;98908.24;105026;1260;97879;-67
2023/04/06 04:57:08;;;;;;;144.60;56.40;;;;;;;-4.44;75.23;98909.48;104874;1260;99215;-67
2023/04/06 04:59:35;;;;;;;139.50;52.70;;;;;;;-4.29;75.14;98909.23;104955;1270;97934;-67
2023/04/06 05:02:03;;;;;;;123.30;47.40;;;;;;;-4.18;75.12;98908.80;104965;1260;97911;-66
2023/04/06 05:04:30;;;;;;;113.60;44.20;;;;;;;-4.07;74.87;98904.45;104934;1261;97981;-66
2023/04/06 05:07:05;;;;;;;110.70;43.90;;;;;;;-4.03;74.82;98905.38;104982;1260;98335;-66
2023/04/06 05:09:32;;;;;;;83.60;35.10;;;;;;;-4.05;75.13;98906.45;104946;1267;108601;-67
2023/04/06 05:12:00;;;;;;;106.20;41.80;;;;;;;-4.09;75.28;98907.62;104925;1258;97899;-66
2023/04/06 05:14:28;;;;;;;110.40;43.50;;;;;;;-4.10;75.78;98910.46;104974;1259;98810;-67
2023/04/06 05:16:55;;;;;;;103.60;42.90;;;;;;;-4.09;76.04;98915.85;104955;1259;111313;-67
2023/04/06 05:19:22;;;;;;;111.60;44.20;;;;;;;-4.02;76.17;98912.21;104892;1260;97969;-68
2023/04/06 05:21:49;;;;;;;116.30;43.30;;;;;;;-3.92;75.95;98911.42;104902;1267;97963;-67
2023/04/06 05:24:16;;;;;;;111.90;43.70;;;;;;;-3.89;76.13;98910.59;105014;1260;97882;-66
2023/04/06 05:26:43;;;;;;;109.70;47.50;;;;;;;-3.82;76.13;98909.95;104954;1260;97929;-67
2023/04/06 05:29:10;;;;;;;108.00;44.40;;;;;;;-3.73;75.87;98906.48;104979;1261;99195;-67
2023/04/06 05:31:38;;;;;;;112.50;44.80;;;;;;;-3.67;75.99;98902.63;104891;1260;99253;-67
2023/04/06 05:34:05;;;;;;;115.70;46.90;;;;;;;-3.58;75.87;98906.54;105225;1261;98820;-67
2023/04/06 05:36:32;;;;;;;108.40;46.20;;;;;;;-3.52;75.91;98905.92;104826;1260;457902;-68
2023/04/06 05:38:59;;;;;;;118.40;46.90;;;;;;;-3.46;76.07;98902.96;105080;1259;97954;-66
2023/04/06 05:41:27;;;;;;;113.70;46.60;;;;;;;-3.36;76.00;98898.15;104959;1269;97898;-66
2023/04/06 05:43:54;;;;;;;81.50;38.00;;;;;;;-3.28;75.85;98897.24;105086;1254;99195;-66
2023/04/06 05:46:21;;;;;;;72.20;34.60;;;;;;;-3.23;76.03;98899.34;105029;1254;98408;-66
2023/04/06 05:48:48;;;;;;;196.80;85.20;;;;;;;-3.14;75.74;98898.83;104921;1271;97947;-66
2023/04/06 05:51:16;;;;;;;173.70;72.80;;;;;;;-3.03;75.62;98898.70;104947;1267;97983;-69
2023/04/06 05:53:43;;;;;;;209.50;82.40;;;;;;;-2.92;75.00;98900.48;104928;1277;98366;-67
2023/04/06 05:56:10;;;;;;;182.80;71.70;;;;;;;-2.81;75.15;98898.36;104947;1260;98017;-68
2023/04/06 05:58:37;;;;;;;122.70;49.70;;;;;;;-2.69;74.80;98902.42;105087;1267;98008;-67
2023/04/06 06:01:04;;;;;;;116.30;47.50;;;;;;;-2.54;74.72;98898.66;104829;1261;97979;-67
2023/04/06 06:03:31;;;;;;;107.60;42.80;;;;;;;-2.38;74.22;98900.11;105023;1261;98286;-67
2023/04/06 06:06:03;;;;;;;125.70;46.00;;;;;;;-2.27;73.91;98898.55;105030;1260;97949;-67
2023/04/06 06:08:31;;;;;;;208.80;64.90;;;;;;;-2.15;74.01;98896.80;104895;1268;108590;-67
2023/04/06 06:10:59;;;;;;;150.40;51.20;;;;;;;-1.91;74.06;98893.75;104666;1261;97976;-67
2023/04/06 06:13:27;;;;;;;148.70;52.20;;;;;;;-1.72;73.42;98895.79;104997;1260;98025;-67
2023/04/06 06:15:54;;;;;;;109.50;44.20;;;;;;;-1.62;73.09;98894.70;105064;1256;112193;-67
2023/04/06 06:18:21;;;;;;;132.30;50.80;;;;;;;-1.55;72.97;98894.04;105012;1260;98015;-67
2023/04/06 06:20:48;;;;;;;129.20;49.70;;;;;;;-1.43;73.08;98892.27;104978;1260;97902;-67
2023/04/06 06:23:15;;;;;;;136.50;55.60;;;;;;;-1.26;73.10;98893.01;105089;1261;98146;-67
2023/04/06 06:25:42;;;;;;;131.80;49.40;;;;;;;-1.05;73.05;98889.75;105024;1254;97882;-67
2023/04/06 06:28:10;;;;;;;106.70;42.50;;;;;;;-0.79;72.38;98889.12;105058;1260;97913;-67
2023/04/06 06:30:37;;;;;;;69.10;29.20;;;;;;;-0.61;71.49;98887.97;105063;1259;97938;-67
2023/04/06 06:33:04;;;;;;;69.50;30.40;;;;;;;-0.60;69.97;98892.46;105071;1259;98042;-67
2023/04/06 06:35:31;;;;;;;83.50;36.70;;;;;;;-0.49;71.14;98891.96;104996;1270;99193;-66
2023/04/06 06:37:59;;;;;;;90.10;35.10;;;;;;;-0.27;70.92;98893.48;105072;1258;97915;-66
2023/04/06 06:40:26;;;;;;;83.70;32.50;;;;;;;-0.02;70.29;98891.17;105054;1260;97956;-67
2023/04/06 06:42:54;;;;;;;65.80;27.60;;;;;;;0.20;69.63;98888.21;105065;1258;97882;-67
2023/04/06 06:45:21;;;;;;;62.10;25.40;;;;;;;0.25;68.94;98889.77;105025;1260;97922;-67
2023/04/06 06:47:48;;;;;;;67.10;28.50;;;;;;;0.37;68.94;98887.84;105023;1259;98243;-67
2023/04/06 06:50:18;;;;;;;71.20;27.70;;;;;;;0.56;68.48;98888.98;105060;1254;99096;-67
2023/04/06 06:52:45;;;;;;;67.60;26.40;;;;;;;0.69;67.40;98885.61;104970;1264;98396;-67
2023/04/06 06:55:13;;;;;;;41.50;18.70;;;;;;;0.86;67.61;98885.60;105038;1257;97980;-67
2023/04/06 06:57:42;;;;;;;44.20;20.40;;;;;;;0.88;65.97;98891.27;105007;1269;97985;-67
2023/04/06 07:00:10;;;;;;;33.00;14.20;;;;;;;0.90;66.38;98891.77;105093;1260;97873;-67
2023/04/06 07:02:39;;;;;;;53.20;20.20;;;;;;;0.91;63.29;98888.19;105033;1259;98001;-67
2023/04/06 07:05:07;;;;;;;30.90;13.30;;;;;;;0.86;62.77;98889.34;104944;1264;111338;-67
2023/04/06 07:07:53;;;;;;;38.60;18.10;;;;;;;0.88;61.91;98892.17;105051;1268;99333;-67
2023/04/06 07:10:21;;;;;;;41.60;17.10;;;;;;;0.97;61.69;98894.02;104835;1260;107516;-67
2023/04/06 07:12:49;;;;;;;26.90;11.20;;;;;;;1.02;60.49;98894.04;105017;1260;98002;-75
2023/04/06 07:15:17;;;;;;;32.40;13.40;;;;;;;1.07;59.74;98892.16;104880;1260;98312;-69
2023/04/06 07:17:47;;;;;;;23.90;11.10;;;;;;;1.10;59.83;98891.63;105082;1254;99090;-67
2023/04/06 07:20:14;;;;;;;19.40;9.10;;;;;;;1.13;57.93;98895.17;104924;1262;100387;-69
2023/04/06 07:22:44;;;;;;;71.10;21.30;;;;;;;1.12;58.55;98899.86;104971;1258;109754;-68
2023/04/06 07:25:11;;;;;;;23.40;8.90;;;;;;;1.13;58.27;98901.06;105081;1260;98001;-67
2023/04/06 07:27:38;;;;;;;37.40;13.80;;;;;;;1.18;58.24;98902.39;105025;1254;97963;-67
2023/04/06 07:30:07;;;;;;;22.40;10.20;;;;;;;1.30;58.78;98904.41;104989;1260;97966;-67
2023/04/06 07:32:35;;;;;;;16.30;7.80;;;;;;;1.33;57.51;98902.58;104958;1260;99163;-67
2023/04/06 07:35:03;;;;;;;20.20;7.60;;;;;;;1.32;57.02;98911.50;105045;1254;108848;-67
2023/04/06 07:37:30;;;;;;;21.60;8.80;;;;;;;1.28;56.52;98913.29;104661;1264;98058;-67
2023/04/06 07:39:57;;;;;;;19.00;7.90;;;;;;;1.29;56.78;98910.54;105051;1254;97992;-67
2023/04/06 07:42:25;;;;;;;18.00;7.00;;;;;;;1.33;56.09;98913.92;105028;1260;97981;-67
2023/04/06 07:44:52;;;;;;;17.30;6.80;;;;;;;1.38;56.18;98915.38;105079;1260;97892;-67
2023/04/06 07:47:20;;;;;;;31.90;11.40;;;;;;;1.36;55.76;98910.96;104969;1267;108689;-67
2023/04/06 07:49:48;;;;;;;16.60;7.90;;;;;;;1.42;55.86;98908.77;105021;1259;98011;-67
2023/04/06 07:52:15;;;;;;;20.00;6.60;;;;;;;1.53;55.55;98907.40;104911;1260;97918;-68
2023/04/06 07:54:42;;;;;;;17.50;8.30;;;;;;;1.59;55.87;98907.48;104936;1260;98014;-67
2023/04/06 07:57:10;;;;;;;14.60;6.80;;;;;;;1.70;55.34;98903.21;105046;1268;97905;-67
2023/04/06 07:59:37;;;;;;;16.80;6.70;;;;;;;1.83;56.02;98902.90;105005;1272;97954;-67
2023/04/06 08:02:05;;;;;;;18.00;8.10;;;;;;;1.94;54.94;98903.99;104943;1259;97903;-67
2023/04/06 08:04:32;;;;;;;20.80;7.70;;;;;;;1.95;54.43;98902.66;104991;1254;98533;-67
2023/04/06 08:07:00;;;;;;;11.40;5.90;;;;;;;2.06;54.59;98902.98;104890;1262;109955;-67
2023/04/06 08:09:27;;;;;;;16.40;7.40;;;;;;;2.22;53.76;98901.60;104945;1260;98011;-67
2023/04/06 08:11:55;;;;;;;12.00;5.40;;;;;;;2.45;54.34;98902.22;104934;1260;97902;-67
2023/04/06 08:14:22;;;;;;;11.60;5.40;;;;;;;2.70;52.53;98907.52;105178;1259;97932;-67
2023/04/06 08:16:49;;;;;;;11.50;6.20;;;;;;;2.63;52.02;98903.73;105009;1260;99224;-67
2023/04/06 08:19:18;;;;;;;14.90;6.70;;;;;;;2.71;51.96;98903.09;104989;1260;97883;-67
2023/04/06 08:21:46;;;;;;;13.80;7.90;;;;;;;2.77;52.28;98903.47;105039;1259;99283;-67
2023/04/06 08:24:14;;;;;;;19.60;9.20;;;;;;;3.05;51.65;98906.00;105025;1264;108587;-67
2023/04/06 08:26:41;;;;;;;12.40;6.40;;;;;;;3.25;51.44;98904.91;105011;1260;97950;-66
2023/04/06 08:29:09;;;;;;;22.00;9.20;;;;;;;3.29;50.06;98899.14;105109;1256;97884;-66
2023/04/06 08:31:36;;;;;;;20.70;7.80;;;;;;;3.13;50.53;98899.89;104950;1259;97901;-67
2023/04/06 08:34:05;;;;;;;19.90;9.80;;;;;;;3.12;50.80;98898.75;104994;1259;97963;-67
2023/04/06 08:36:33;;;;;;;18.30;10.00;;;;;;;3.20;50.43;98892.57;104832;1254;108637;-69
2023/04/06 08:39:01;;;;;;;15.20;7.60;;;;;;;3.41;50.56;98887.96;105051;1254;97985;-67
2023/04/06 08:41:28;;;;;;;18.00;7.80;;;;;;;3.68;50.13;98891.42;104998;1259;97906;-67
2023/04/06 08:44:01;;;;;;;25.30;11.10;;;;;;;3.77;49.45;98888.50;105000;1260;98008;-67
2023/04/06 08:46:31;;;;;;;16.30;8.20;;;;;;;3.86;49.04;98886.44;105037;1259;99534;-67
2023/04/06 08:49:06;;;;;;;19.90;11.20;;;;;;;4.11;48.96;98885.51;104858;1273;107664;-67
2023/04/06 08:51:37;;;;;;;21.90;12.70;;;;;;;4.34;48.89;98878.86;104972;1259;98011;-67
2023/04/06 08:54:05;;;;;;;14.00;8.20;;;;;;;4.60;48.59;98875.45;104981;1254;97862;-67
2023/04/06 08:56:36;;;;;;;20.10;11.70;;;;;;;4.73;48.25;98874.61;104891;1261;111916;-67
2023/04/06 08:59:05;;;;;;;15.20;8.60;;;;;;;5.06;47.73;98875.99;104791;1264;98153;-67
2023/04/06 09:01:39;;;;;;;14.50;9.40;;;;;;;5.38;47.23;98867.31;105025;1260;106616;-67
2023/04/06 09:04:10;;;;;;;15.50;9.60;;;;;;;5.80;46.05;98863.81;104838;1257;98904;-67
2023/04/06 09:06:40;;;;;;;16.20;9.30;;;;;;;6.08;46.96;98864.65;104969;1257;99265;-66
2023/04/06 09:09:08;;;;;;;11.10;7.20;;;;;;;6.58;45.02;98866.62;104917;1263;111307;-67
2023/04/06 09:11:50;;;;;;;15.70;8.20;;;;;;;6.39;43.18;98868.92;105005;1264;99719;-67
2023/04/06 09:14:32;;;;;;;18.40;8.90;;;;;;;6.24;43.72;98867.03;104971;1259;108338;-66
2023/04/06 09:16:59;;;;;;;13.40;8.50;;;;;;;5.98;43.99;98867.12;104944;1259;99202;-67
2023/04/06 09:19:26;;;;;;;14.50;7.90;;;;;;;5.99;44.06;98861.61;105115;1261;98804;-66
2023/04/06 09:22:07;;;;;;;13.60;8.70;;;;;;;5.95;43.87;98858.96;105006;1259;97990;-67
2023/04/06 09:24:46;;;;;;;12.90;7.70;;;;;;;6.19;44.93;98857.27;105046;1261;99233;-68
2023/04/06 09:27:14;;;;;;;12.60;8.40;;;;;;;6.54;44.09;98857.08;104988;1260;108169;-68
2023/04/06 09:29:43;;;;;;;10.60;7.20;;;;;;;6.71;43.08;98853.54;104987;1260;99196;-67
2023/04/06 09:32:12;;;;;;;15.70;8.10;;;;;;;6.67;42.33;98848.92;105132;1259;99116;-66
2023/04/06 09:34:39;;;;;;;14.70;9.20;;;;;;;6.69;43.14;98844.88;105164;1257;111867;-67
2023/04/06 09:37:17;;;;;;;13.30;6.60;;;;;;;7.10;42.44;98843.27;105193;1270;99246;-68
2023/04/06 09:39:46;;;;;;;11.50;6.50;;;;;;;6.75;42.01;98844.23;105127;1258;108545;-67
2023/04/06 09:42:26;;;;;;;13.80;8.30;;;;;;;6.26;42.00;98838.94;105096;1260;98080;-67
2023/04/06 09:44:54;;;;;;;12.30;8.50;;;;;;;6.10;43.09;98841.58;105039;1254;99100;-67
2023/04/06 09:47:26;;;;;;;10.80;6.80;;;;;;;6.09;42.76;98846.20;105109;1253;112403;-67
2023/04/06 09:50:00;;;;;;;11.30;7.30;;;;;;;5.96;42.87;98842.75;105004;1257;98210;-66
2023/04/06 09:52:32;;;;;;;15.10;8.40;;;;;;;5.97;43.41;98841.11;105099;1268;107534;-67
2023/04/06 09:55:04;;;;;;;15.10;8.10;;;;;;;6.13;42.89;98839.21;104963;1261;97904;-70
2023/04/06 09:57:33;;;;;;;10.80;7.50;;;;;;;6.26;44.01;98840.89;105021;1258;97989;-67
2023/04/06 10:00:10;;;;;;;12.60;6.80;;;;;;;6.46;42.50;98836.31;105111;1259;112190;-67
2023/04/06 10:03:09;;;;;;;12.50;6.50;;;;;;;5.86;42.93;98835.39;104995;1262;99999;-67
2023/04/06 10:05:46;;;;;;;10.30;7.00;;;;;;;5.58;44.31;98832.49;105015;1267;109775;-67
2023/04/06 10:08:14;;;;;;;13.60;7.50;;;;;;;5.87;44.44;98829.56;105014;1260;97837;-67
2023/04/06 10:10:43;;;;;;;7.90;4.90;;;;;;;6.17;44.17;98835.73;105035;1254;99737;-67
2023/04/06 10:13:11;;;;;;;22.00;9.90;;;;;;;5.89;43.34;98829.98;104806;1259;111071;-67
2023/04/06 10:15:42;;;;;;;14.50;7.90;;;;;;;5.76;44.22;98826.73;104746;1264;98344;-65
2023/04/06 10:18:09;;;;;;;13.40;7.40;;;;;;;5.62;43.84;98818.98;105029;1258;108635;-67
2023/04/06 10:20:41;;;;;;;14.70;7.70;;;;;;;5.42;44.62;98824.98;105000;1256;99354;-66
2023/04/06 10:23:26;;;;;;;18.40;9.30;;;;;;;5.52;45.20;98819.08;105074;1259;98837;-67
2023/04/06 10:25:58;;;;;;;10.80;5.50;;;;;;;5.96;45.49;98816.20;105048;1260;113371;-66
2023/04/06 10:28:30;;;;;;;12.90;6.10;;;;;;;6.17;43.99;98821.52;105069;1260;99278;-65
2023/04/06 10:31:00;;;;;;;9.90;6.20;;;;;;;5.87;43.97;98819.83;104691;1270;108188;-66
2023/04/06 10:33:27;;;;;;;11.90;7.10;;;;;;;5.85;43.89;98818.54;105044;1254;99088;-66
2023/04/06 10:35:55;;;;;;;23.50;11.90;;;;;;;5.77;43.69;98812.10;105044;1259;97905;-67
2023/04/06 10:38:43;;;;;;;12.70;6.00;;;;;;;5.76;44.70;98808.77;104906;1259;112322;-67
2023/04/06 10:41:12;;;;;;;12.60;7.20;;;;;;;6.02;44.00;98808.20;104834;1259;99252;-66
2023/04/06 10:43:42;;;;;;;16.40;9.90;;;;;;;6.22;43.94;98799.89;104844;1275;106716;-66
2023/04/06 10:46:11;;;;;;;12.20;7.50;;;;;;;6.69;44.28;98798.74;104887;1259;99250;-67
2023/04/06 10:48:39;;;;;;;11.50;6.10;;;;;;;7.19;43.21;98795.38;104773;1257;97962;-67
2023/04/06 10:51:11;;;;;;;17.30;8.60;;;;;;;7.12;41.84;98797.94;104993;1259;112214;-67
2023/04/06 10:53:45;;;;;;;9.90;6.10;;;;;;;6.96;41.87;98795.48;104883;1257;99244;-66
2023/04/06 10:56:14;;;;;;;12.00;6.90;;;;;;;6.85;41.56;98792.97;104975;1269;107671;-66
2023/04/06 10:58:49;;;;;;;12.40;7.20;;;;;;;7.15;41.98;98790.45;104733;1257;98081;-67
2023/04/06 11:01:18;;;;;;;11.00;8.10;;;;;;;7.53;42.26;98788.47;104674;1264;99221;-67
2023/04/06 11:03:52;;;;;;;10.50;6.70;;;;;;;8.31;41.41;98780.60;104973;1259;112230;-68
2023/04/06 11:06:28;;;;;;;14.00;9.30;;;;;;;8.19;39.54;98781.70;104827;1259;98874;-68
2023/04/06 11:08:58;;;;;;;9.80;7.00;;;;;;;7.77;40.46;98782.26;104558;1265;108169;-67
2023/04/06 11:11:26;;;;;;;10.50;6.20;;;;;;;7.63;40.63;98788.20;104818;1261;98002;-66
2023/04/06 11:13:56;;;;;;;13.50;9.00;;;;;;;7.15;41.10;98787.78;104865;1268;97991;-71
2023/04/06 11:16:29;;;;;;;10.70;7.10;;;;;;;7.26;41.81;98783.10;104788;1259;112123;-68